Time;durP1;ratioP1;P1;durP2;ratioP2;P2;SDS_P1;SDS_P2;PMS_P1;PMS_P2;Temp;Humidity;BMP_temperature;BMP_pressure;BME280_temperature;BME280_humidity;BME280_pressure;Samples;Min_cycle;Max_cycle;Signal;HPM_P1;HPM_P2
2020/12/27 00:00:22;;;;;;;10.52;8.13;;;;;;;4.86;100.00;100193.53;5093628;28;20032;-81
2020/12/27 00:02:47;;;;;;;10.60;7.78;;;;;;;4.81;100.00;100192.84;5096899;28;20035;-83
2020/12/27 00:05:12;;;;;;;12.98;8.93;;;;;;;4.75;100.00;100195.66;5095729;28;20028;-81
2020/12/27 00:07:38;;;;;;;17.13;8.45;;;;;;;4.73;100.00;100193.09;5089653;28;20591;-80
2020/12/27 00:10:04;;;;;;;8.45;6.65;;;;;;;4.76;100.00;100169.41;5094023;28;20500;-80
2020/12/27 00:12:30;;;;;;;12.40;8.77;;;;;;;4.74;100.00;100192.19;5093592;28;20051;-82
2020/12/27 00:14:55;;;;;;;9.88;7.72;;;;;;;4.73;100.00;100153.81;5091882;28;20028;-81
2020/12/27 00:17:21;;;;;;;9.77;7.93;;;;;;;4.74;100.00;100146.81;5093895;28;20042;-80
2020/12/27 00:19:46;;;;;;;11.05;7.75;;;;;;;4.72;100.00;100154.72;5094232;28;20024;-79
2020/12/27 00:22:12;;;;;;;12.85;7.95;;;;;;;4.74;100.00;100125.88;5093029;28;20028;-82
2020/12/27 00:24:38;;;;;;;14.85;8.40;;;;;;;4.73;100.00;100117.16;5095583;28;20569;-78
2020/12/27 00:27:03;;;;;;;14.27;8.25;;;;;;;4.77;100.00;100095.22;5096922;28;20027;-80
2020/12/27 00:29:29;;;;;;;10.02;8.05;;;;;;;4.80;100.00;100086.41;5091906;28;20059;-83
2020/12/27 00:31:55;;;;;;;12.98;8.13;;;;;;;4.80;100.00;100071.53;5096791;28;20051;-81
2020/12/27 00:34:22;;;;;;;11.07;7.75;;;;;;;4.75;100.00;100055.13;5093326;28;20621;-80
2020/12/27 00:36:47;;;;;;;11.10;7.90;;;;;;;4.74;100.00;100076.13;5097541;28;20544;-81
2020/12/27 00:39:13;;;;;;;9.88;7.57;;;;;;;4.74;100.00;100052.56;5095235;28;20100;-82
2020/12/27 00:41:38;;;;;;;10.23;7.03;;;;;;;4.74;100.00;100031.63;5092664;28;20020;-82
2020/12/27 00:44:04;;;;;;;13.70;8.25;;;;;;;4.77;100.00;100032.41;5093581;28;20043;-81
2020/12/27 00:46:30;;;;;;;12.32;8.23;;;;;;;4.76;100.00;100022.81;5086148;28;20056;-83
2020/12/27 00:48:56;;;;;;;10.30;8.27;;;;;;;4.77;100.00;100035.00;5095191;28;20035;-81
2020/12/27 00:51:26;;;;;;;8.60;6.03;;;;;;;4.80;99.57;99998.25;5076396;28;20116;-82
2020/12/27 00:53:52;;;;;;;12.63;8.40;;;;;;;4.80;99.87;99995.63;5094227;28;20069;-83
2020/12/27 00:56:17;;;;;;;13.40;9.20;;;;;;;4.82;99.91;99991.19;5091249;28;20036;-81
2020/12/27 00:58:43;;;;;;;13.68;8.35;;;;;;;4.86;98.64;99979.69;5090581;28;20082;-81
2020/12/27 01:01:09;;;;;;;12.10;7.22;;;;;;;4.90;98.37;99965.59;5067768;28;20466;-82
2020/12/27 01:03:35;;;;;;;8.25;6.75;;;;;;;4.91;97.95;99951.59;5090151;28;20016;-82
2020/12/27 01:06:00;;;;;;;9.40;6.80;;;;;;;4.97;97.16;99953.16;5091393;28;20071;-83
2020/12/27 01:08:30;;;;;;;9.32;6.60;;;;;;;4.98;96.84;99962.72;5089645;28;20028;-81
2020/12/27 01:10:55;;;;;;;10.98;6.97;;;;;;;4.97;96.97;99932.22;5092020;28;20027;-82
2020/12/27 01:13:21;;;;;;;11.38;6.65;;;;;;;4.99;96.91;99913.81;5087654;28;20723;-83
2020/12/27 01:15:49;;;;;;;9.40;7.72;;;;;;;4.93;97.98;99904.41;5088057;28;20057;-82
2020/12/27 01:18:14;;;;;;;18.35;9.80;;;;;;;4.86;98.99;99903.75;5071928;28;20059;-83
2020/12/27 01:20:40;;;;;;;12.15;7.47;;;;;;;4.79;98.88;99889.19;5089735;28;20055;-84
2020/12/27 01:23:05;;;;;;;10.93;7.88;;;;;;;4.76;99.27;99873.59;5091405;28;20035;-81
2020/12/27 01:25:30;;;;;;;10.45;7.38;;;;;;;4.76;99.11;99868.34;5090072;28;20062;-82
2020/12/27 01:27:56;;;;;;;14.10;7.07;;;;;;;4.71;99.23;99845.88;5073500;28;20084;-80
2020/12/27 01:30:21;;;;;;;9.52;7.45;;;;;;;4.66;99.52;99867.81;5089939;28;20035;-80
2020/12/27 01:32:47;;;;;;;8.55;6.57;;;;;;;4.63;100.00;99860.09;5102080;28;20031;-81
2020/12/27 01:35:13;;;;;;;11.48;9.13;;;;;;;4.50;100.00;99823.94;5091770;28;20063;-83
2020/12/27 01:37:38;;;;;;;14.52;9.18;;;;;;;4.41;100.00;99835.59;5093306;28;20480;-81
2020/12/27 01:40:05;;;;;;;10.10;8.45;;;;;;;4.33;100.00;99835.00;5072362;28;20502;-82
2020/12/27 01:42:30;;;;;;;10.32;7.10;;;;;;;4.34;100.00;99784.41;5097879;28;20047;-82
2020/12/27 01:44:55;;;;;;;10.88;7.75;;;;;;;4.26;100.00;99784.66;5092938;28;20063;-82
2020/12/27 01:47:22;;;;;;;13.82;9.07;;;;;;;4.23;100.00;99779.56;5099924;28;20038;-83
2020/12/27 01:49:50;;;;;;;12.30;9.27;;;;;;;4.23;100.00;99773.47;5088436;28;20052;-82
2020/12/27 01:52:16;;;;;;;10.65;6.78;;;;;;;4.28;100.00;99782.84;5095402;28;20035;-81
2020/12/27 01:54:41;;;;;;;10.88;6.22;;;;;;;4.27;100.00;99775.06;5092056;28;20053;-82
2020/12/27 01:57:19;;;;;;;13.93;7.97;;;;;;;4.28;100.00;99746.25;5088544;28;20103;-80
2020/12/27 01:59:46;;;;;;;13.70;7.47;;;;;;;4.30;100.00;99747.03;5095682;28;20062;-83
2020/12/27 02:02:13;;;;;;;13.57;6.97;;;;;;;4.33;100.00;99748.69;5093745;28;20032;-82
2020/12/27 02:04:40;;;;;;;10.60;7.75;;;;;;;4.30;100.00;99725.25;5088706;28;20111;-82
2020/12/27 02:07:07;;;;;;;8.23;6.32;;;;;;;4.31;100.00;99711.25;5080898;28;20120;-82
2020/12/27 02:09:36;;;;;;;12.23;7.47;;;;;;;4.30;100.00;99702.56;5092082;28;20028;-81
2020/12/27 02:12:09;;;;;;;11.25;7.00;;;;;;;4.32;100.00;99686.81;5091763;28;20591;-83
2020/12/27 02:14:38;;;;;;;10.60;6.15;;;;;;;4.37;100.00;99661.34;5088209;28;20044;-82
2020/12/27 02:17:05;;;;;;;13.27;6.30;;;;;;;4.40;100.00;99640.28;5077185;28;20453;-82
2020/12/27 02:19:30;;;;;;;10.52;7.50;;;;;;;4.30;100.00;99625.84;5069480;28;20108;-82
2020/12/27 02:21:56;;;;;;;11.07;7.00;;;;;;;4.27;100.00;99668.69;5092943;28;20107;-83
2020/12/27 02:24:22;;;;;;;12.85;7.82;;;;;;;4.27;100.00;99658.22;5092219;28;20107;-82
2020/12/27 02:27:01;;;;;;;14.25;6.65;;;;;;;4.29;100.00;99656.38;5093168;28;20020;-82
2020/12/27 02:29:27;;;;;;;11.75;6.05;;;;;;;4.25;100.00;99636.47;5093892;28;20020;-83
2020/12/27 02:31:54;;;;;;;8.20;5.45;;;;;;;4.26;100.00;99643.41;5092446;28;20028;-81
2020/12/27 02:34:20;;;;;;;7.50;5.78;;;;;;;4.26;100.00;99622.47;5092628;28;20038;-81
2020/12/27 02:36:46;;;;;;;8.18;5.68;;;;;;;4.26;100.00;99593.72;5094074;28;20078;-81
2020/12/27 02:39:13;;;;;;;12.48;6.88;;;;;;;4.29;100.00;99598.00;5088175;28;20028;-82
2020/12/27 02:41:39;;;;;;;9.95;5.90;;;;;;;4.23;100.00;99588.63;5091894;28;20039;-82
2020/12/27 02:44:06;;;;;;;10.27;6.43;;;;;;;4.19;100.00;99576.56;5092683;28;20485;-82
2020/12/27 02:46:31;;;;;;;10.80;7.50;;;;;;;4.17;100.00;99549.63;5092562;28;20027;-81
2020/12/27 02:48:57;;;;;;;7.30;5.55;;;;;;;4.18;100.00;99543.47;5090548;28;20102;-81
2020/12/27 02:51:24;;;;;;;9.15;6.72;;;;;;;4.18;100.00;99543.47;5092920;28;20043;-81
2020/12/27 02:53:50;;;;;;;10.15;5.70;;;;;;;4.18;100.00;99527.78;5093001;28;20034;-82
2020/12/27 02:56:20;;;;;;;8.10;5.53;;;;;;;4.22;100.00;99529.38;5092320;28;20101;-81
2020/12/27 02:58:46;;;;;;;6.38;5.40;;;;;;;-145.48;100.00;59605.97;5087191;28;20029;-82
2020/12/27 03:02:10;;;;;;;7.20;5.50;;;;;;;-145.48;100.00;59605.97;5092360;28;20557;-81
2020/12/27 03:04:52;;;;;;;7.78;4.35;;;;;;;-145.48;100.00;59605.97;5089762;28;20484;-81
2020/12/27 03:07:17;;;;;;;8.40;3.83;;;;;;;-145.48;100.00;59605.97;5091760;28;20028;-80
2020/12/27 03:09:42;;;;;;;6.85;4.75;;;;;;;-145.48;100.00;59605.97;5092513;28;20036;-81
2020/12/27 03:12:08;;;;;;;7.20;4.63;;;;;;;-145.48;100.00;59605.97;5091586;28;20039;-81
2020/12/27 03:14:33;;;;;;;12.02;5.05;;;;;;;-145.48;100.00;59605.97;5093788;28;20040;-80
2020/12/27 03:16:58;;;;;;;7.90;5.88;;;;;;;-145.48;100.00;59605.97;5075121;28;20423;-82
2020/12/27 03:19:24;;;;;;;6.97;5.38;;;;;;;-145.48;100.00;59605.97;5092133;28;20035;-81
2020/12/27 03:21:49;;;;;;;7.75;4.65;;;;;;;-145.48;100.00;59605.97;5093264;28;20020;-82
2020/12/27 03:24:14;;;;;;;5.80;5.03;;;;;;;-145.48;100.00;59605.97;5070493;28;20036;-80
2020/12/27 03:26:40;;;;;;;7.63;4.68;;;;;;;-145.48;100.00;59605.97;5098705;28;21396;-80
2020/12/27 03:29:05;;;;;;;7.95;5.53;;;;;;;-145.48;100.00;59605.97;5093754;28;20024;-79
2020/12/27 03:31:31;;;;;;;7.40;5.45;;;;;;;-145.48;100.00;59605.97;5093002;28;20646;-82
2020/12/27 03:33:56;;;;;;;9.60;5.40;;;;;;;-145.48;100.00;59605.97;5073312;28;20020;-82
2020/12/27 03:36:21;;;;;;;8.30;4.78;;;;;;;-145.48;100.00;59605.97;5091608;28;21502;-82
2020/12/27 03:38:51;;;;;;;5.88;4.00;;;;;;;-145.48;100.00;59605.97;5098869;28;20032;-80
2020/12/27 03:41:17;;;;;;;10.05;4.88;;;;;;;-145.48;100.00;59605.97;5081924;28;20480;-80
2020/12/27 03:43:42;;;;;;;9.45;5.38;;;;;;;-145.48;100.00;59605.97;5093084;28;20043;-81
2020/12/27 03:46:08;;;;;;;5.97;4.18;;;;;;;-145.48;100.00;59605.97;5097550;28;20020;-82
2020/12/27 03:48:33;;;;;;;6.93;4.90;;;;;;;-145.48;100.00;59605.97;5093917;28;20035;-81
2020/12/27 03:50:58;;;;;;;8.18;4.90;;;;;;;-145.48;100.00;59605.97;5095379;28;20024;-81
2020/12/27 03:53:24;;;;;;;5.75;4.43;;;;;;;-145.48;100.00;59605.97;5094941;28;20027;-81
2020/12/27 03:55:49;;;;;;;11.40;4.28;;;;;;;-145.48;100.00;59605.97;5094402;28;20046;-81
2020/12/27 03:58:14;;;;;;;7.47;4.43;;;;;;;-145.48;100.00;59605.97;5094874;28;20051;-80
2020/12/27 04:00:40;;;;;;;10.70;4.68;;;;;;;-145.48;100.00;59605.97;5096013;28;20032;-82
2020/12/27 04:03:05;;;;;;;6.10;4.20;;;;;;;-145.48;100.00;59605.97;5076074;28;20030;-81
2020/12/27 04:05:31;;;;;;;6.72;4.65;;;;;;;-145.48;100.00;59605.97;5097527;28;20031;-80
2020/12/27 04:07:56;;;;;;;6.22;4.18;;;;;;;-145.48;100.00;59605.97;5075040;28;20020;-81
2020/12/27 04:10:21;;;;;;;6.68;3.67;;;;;;;-145.48;100.00;59605.97;5095970;28;20074;-80
2020/12/27 04:12:46;;;;;;;5.30;4.03;;;;;;;-145.48;100.00;59605.97;5092506;28;20044;-80
2020/12/27 04:15:12;;;;;;;5.00;4.00;;;;;;;-145.48;100.00;59605.97;5092982;28;20024;-80
2020/12/27 04:17:37;;;;;;;4.45;3.50;;;;;;;-145.48;100.00;59605.97;5092278;28;20024;-80
2020/12/27 04:20:03;;;;;;;4.45;3.38;;;;;;;-145.48;100.00;59605.97;5089859;28;20032;-81
2020/12/27 04:22:29;;;;;;;5.75;4.10;;;;;;;-145.48;100.00;59605.97;5090313;28;20024;-81
2020/12/27 04:24:54;;;;;;;5.28;4.05;;;;;;;-145.48;100.00;59605.97;5091232;28;20032;-82
2020/12/27 04:27:20;;;;;;;10.90;4.10;;;;;;;-145.48;100.00;59605.97;5090989;28;20024;-81
2020/12/27 04:29:45;;;;;;;5.80;4.00;;;;;;;-145.48;100.00;59605.97;5091661;28;20028;-82
2020/12/27 04:32:10;;;;;;;6.45;3.72;;;;;;;-145.48;100.00;59605.97;5090462;28;20062;-81
2020/12/27 04:34:36;;;;;;;4.78;3.50;;;;;;;-145.48;100.00;59605.97;5094638;28;20024;-81
2020/12/27 04:37:01;;;;;;;5.32;3.55;;;;;;;-145.48;100.00;59605.97;5090397;28;20036;-81
2020/12/27 04:39:26;;;;;;;4.53;3.35;;;;;;;-145.48;100.00;59605.97;5072977;28;20495;-81
2020/12/27 04:41:51;;;;;;;4.07;2.80;;;;;;;-145.48;100.00;59605.97;5093492;28;20055;-82
2020/12/27 04:44:17;;;;;;;4.25;2.95;;;;;;;-145.48;100.00;59605.97;5083559;28;20446;-82
2020/12/27 04:46:42;;;;;;;3.55;2.30;;;;;;;-145.48;100.00;59605.97;5086387;28;20035;-82
2020/12/27 04:49:09;;;;;;;3.03;1.90;;;;;;;-145.48;100.00;59605.97;5075434;28;20528;-83
2020/12/27 04:51:36;;;;;;;5.22;1.98;;;;;;;-145.48;100.00;59605.97;5091356;28;20024;-81
2020/12/27 04:54:02;;;;;;;2.80;1.73;;;;;;;-145.48;100.00;59605.97;5084170;28;20216;-82
2020/12/27 04:56:27;;;;;;;2.05;1.65;;;;;;;-145.48;100.00;59605.97;5092797;28;20677;-81
2020/12/27 04:58:54;;;;;;;2.20;1.52;;;;;;;-145.48;100.00;59605.97;5074506;28;20107;-81
2020/12/27 05:01:20;;;;;;;3.63;1.90;;;;;;;-145.48;100.00;59605.97;5074207;28;20024;-82
2020/12/27 05:03:45;;;;;;;3.90;1.70;;;;;;;-145.48;100.00;59605.97;5090697;28;20506;-82
2020/12/27 05:06:14;;;;;;;3.22;1.42;;;;;;;-145.48;100.00;59605.97;5098310;28;20036;-81
2020/12/27 05:08:42;;;;;;;2.15;1.73;;;;;;;-145.48;100.00;59605.97;5088411;28;20383;-81
2020/12/27 05:11:08;;;;;;;1.67;1.42;;;;;;;-145.48;100.00;59605.97;5096367;28;20020;-81
2020/12/27 05:13:33;;;;;;;2.40;1.30;;;;;;;-145.48;100.00;59605.97;5089652;28;20115;-81
2020/12/27 05:16:03;;;;;;;1.50;1.40;;;;;;;-145.48;100.00;59605.97;5085777;28;20032;-82
2020/12/27 05:18:28;;;;;;;2.92;1.90;;;;;;;-145.48;100.00;59605.97;5097067;28;20023;-83
2020/12/27 05:20:53;;;;;;;3.28;1.73;;;;;;;-145.48;100.00;59605.97;5097734;28;20494;-83
2020/12/27 05:23:24;;;;;;;1.45;1.10;;;;;;;-145.48;100.00;59605.97;5073235;28;20074;-81
2020/12/27 05:25:49;;;;;;;2.67;1.33;;;;;;;-145.48;100.00;59605.97;5096459;28;20520;-82
2020/12/27 05:28:15;;;;;;;2.58;1.48;;;;;;;-145.48;100.00;59605.97;5094506;28;20055;-78
2020/12/27 05:30:44;;;;;;;3.25;1.80;;;;;;;-145.48;100.00;59605.97;5094349;28;20038;-83
2020/12/27 05:33:16;;;;;;;3.67;1.80;;;;;;;-145.48;100.00;59605.97;5072999;28;20024;-82
2020/12/27 05:35:43;;;;;;;2.45;1.60;;;;;;;-145.48;100.00;59605.97;5092030;28;20035;-83
2020/12/27 05:38:10;;;;;;;1.45;1.15;;;;;;;-145.48;100.00;59605.97;5095456;28;20515;-81
2020/12/27 05:40:38;;;;;;;2.50;1.60;;;;;;;-145.48;100.00;59605.97;5097481;28;20391;-81
2020/12/27 05:43:29;;;;;;;2.72;1.70;;;;;;;-145.48;100.00;59605.97;5092417;28;20032;-82
2020/12/27 05:45:56;;;;;;;3.17;1.92;;;;;;;-145.48;100.00;59605.97;5090231;28;20043;-81
2020/12/27 05:48:22;;;;;;;1.98;1.50;;;;;;;-145.48;100.00;59605.97;5094500;28;20113;-82
2020/12/27 05:50:50;;;;;;;2.58;1.48;;;;;;;-145.48;100.00;59605.97;5097455;28;20020;-83
2020/12/27 05:53:21;;;;;;;2.22;1.63;;;;;;;-145.48;100.00;59605.97;5097466;28;20040;-83
2020/12/27 05:55:48;;;;;;;1.50;1.05;;;;;;;-145.48;100.00;59605.97;5092096;28;20027;-81
2020/12/27 05:58:20;;;;;;;2.35;1.65;;;;;;;-145.48;100.00;59605.97;5093518;28;20487;-82
2020/12/27 06:00:50;;;;;;;1.63;1.38;;;;;;;-145.48;100.00;59605.97;5095185;28;20032;-81
2020/12/27 06:03:20;;;;;;;1.13;1.02;;;;;;;-145.48;100.00;59605.97;5091199;28;20499;-81
2020/12/27 06:05:54;;;;;;;2.72;1.15;;;;;;;-145.48;100.00;59605.97;5097018;28;20028;-82
2020/12/27 06:08:28;;;;;;;1.50;1.00;;;;;;;-145.48;100.00;59605.97;5091255;28;20023;-82
2020/12/27 06:11:03;;;;;;;1.25;0.77;;;;;;;-145.48;100.00;59605.97;5089798;28;20449;-82
2020/12/27 06:13:28;;;;;;;0.77;0.75;;;;;;;-145.48;100.00;59605.97;5090878;28;20044;-82
2020/12/27 06:15:57;;;;;;;1.00;0.90;;;;;;;-145.48;100.00;59605.97;5077383;28;20565;-82
2020/12/27 06:18:29;;;;;;;3.58;0.80;;;;;;;-145.48;100.00;59605.97;5074219;28;20618;-82
2020/12/27 06:21:09;;;;;;;1.67;1.02;;;;;;;-145.48;100.00;59605.97;5093270;28;20047;-83
2020/12/27 06:23:36;;;;;;;1.90;0.70;;;;;;;-145.48;100.00;59605.97;5089003;28;20031;-83
2020/12/27 06:26:03;;;;;;;0.80;0.80;;;;;;;-145.48;100.00;59605.97;5079608;28;20016;-82
2020/12/27 06:28:30;;;;;;;0.70;0.60;;;;;;;-145.48;100.00;59605.97;5088608;28;20028;-82
2020/12/27 06:30:58;;;;;;;0.55;0.55;;;;;;;-145.48;100.00;59605.97;5094251;28;20028;-82
2020/12/27 06:33:28;;;;;;;0.63;0.57;;;;;;;-145.48;100.00;59605.97;5084390;28;20072;-81
2020/12/27 06:35:53;;;;;;;0.82;0.50;;;;;;;-145.48;100.00;59605.97;5088440;28;20024;-82
2020/12/27 06:38:23;;;;;;;0.73;0.60;;;;;;;-145.48;100.00;59605.97;5085439;28;20533;-82
2020/12/27 06:41:05;;;;;;;0.80;0.80;;;;;;;-145.48;100.00;59605.97;5073021;28;20502;-82
2020/12/27 06:43:40;;;;;;;0.50;0.50;;;;;;;-145.48;100.00;59605.97;5072290;28;20038;-82
2020/12/27 06:46:26;;;;;;;0.30;0.30;;;;;;;-145.48;100.00;59605.97;5074328;28;20032;-84
2020/12/27 06:49:10;;;;;;;1.27;0.70;;;;;;;-145.48;100.00;59605.97;5091096;28;20024;-83
2020/12/27 06:51:43;;;;;;;1.10;0.80;;;;;;;-145.48;100.00;59605.97;5088105;28;20554;-81
2020/12/27 06:54:09;;;;;;;0.80;0.63;;;;;;;-145.48;100.00;59605.97;5092624;28;20081;-82
2020/12/27 06:56:45;;;;;;;1.13;0.47;;;;;;;-145.48;100.00;59605.97;5090985;28;20422;-83
2020/12/27 06:59:11;;;;;;;0.38;0.38;;;;;;;-145.48;100.00;59605.97;5091027;28;20023;-82
2020/12/27 07:01:37;;;;;;;3.13;0.40;;;;;;;-145.48;100.00;59605.97;5088695;28;20035;-81
2020/12/27 07:04:11;;;;;;;1.20;0.60;;;;;;;-145.48;100.00;59605.97;5088407;28;20118;-83
2020/12/27 07:06:42;;;;;;;1.15;0.60;;;;;;;-145.48;100.00;59605.97;5083897;28;20139;-82
2020/12/27 07:09:07;;;;;;;0.73;0.40;;;;;;;-145.48;100.00;59605.97;5093462;28;20028;-83
2020/12/27 07:11:33;;;;;;;0.93;0.40;;;;;;;-145.48;100.00;59605.97;5095906;28;20024;-80
2020/12/27 07:13:59;;;;;;;0.47;0.40;;;;;;;-145.48;100.00;59605.97;5093125;28;20515;-83
2020/12/27 07:16:41;;;;;;;0.55;0.45;;;;;;;-145.48;100.00;59605.97;5097744;28;20032;-83
2020/12/27 07:19:06;;;;;;;0.98;0.40;;;;;;;-145.48;100.00;59605.97;5096590;28;20116;-81
2020/12/27 07:21:36;;;;;;;0.93;0.45;;;;;;;-145.48;100.00;59605.97;5078074;28;20120;-83
2020/12/27 07:24:11;;;;;;;0.60;0.60;;;;;;;-145.48;100.00;59605.97;5096632;28;20500;-83
2020/12/27 07:26:44;;;;;;;3.10;0.50;;;;;;;-145.48;100.00;59605.97;5073188;28;20086;-82
2020/12/27 07:29:11;;;;;;;0.32;0.32;;;;;;;-145.48;100.00;59605.97;5071369;28;20033;-83
2020/12/27 07:31:38;;;;;;;0.98;0.55;;;;;;;-145.48;100.00;59605.97;5079514;28;20027;-82
2020/12/27 07:34:06;;;;;;;0.40;0.40;;;;;;;-145.48;100.00;59605.97;5096270;28;20071;-81
2020/12/27 07:36:33;;;;;;;1.02;0.47;;;;;;;-145.48;100.00;59605.97;5096296;28;20103;-81
2020/12/27 07:39:01;;;;;;;1.08;0.70;;;;;;;-145.48;100.00;59605.97;5099746;28;20027;-82
2020/12/27 07:41:36;;;;;;;0.50;0.35;;;;;;;-145.48;100.00;59605.97;5098778;28;20023;-82
2020/12/27 07:44:04;;;;;;;0.97;0.50;;;;;;;-145.48;100.00;59605.97;5079123;28;20043;-81
2020/12/27 07:46:29;;;;;;;0.80;0.60;;;;;;;-145.48;100.00;59605.97;5075882;28;20560;-82
2020/12/27 07:48:55;;;;;;;0.22;0.22;;;;;;;-145.48;100.00;59605.97;5090001;28;20032;-80
2020/12/27 07:51:23;;;;;;;0.80;0.80;;;;;;;-145.48;100.00;59605.97;5079778;28;20505;-82
2020/12/27 07:53:52;;;;;;;1.05;0.50;;;;;;;-145.48;100.00;59605.97;5095603;28;20034;-82
2020/12/27 07:56:19;;;;;;;0.98;0.70;;;;;;;-145.48;100.00;59605.97;5095892;28;20501;-82
2020/12/27 07:58:55;;;;;;;0.80;0.55;;;;;;;-145.48;100.00;59605.97;5097405;28;20522;-82
2020/12/27 08:01:26;;;;;;;1.73;0.95;;;;;;;-145.48;100.00;59605.97;5092173;28;20044;-82
2020/12/27 08:03:53;;;;;;;0.57;0.55;;;;;;;-145.48;100.00;59605.97;5100745;28;20034;-81
2020/12/27 08:06:19;;;;;;;0.60;0.50;;;;;;;-145.48;100.00;59605.97;5090890;28;20119;-81
2020/12/27 08:08:45;;;;;;;0.40;0.40;;;;;;;-145.48;100.00;59605.97;5096572;28;20039;-80
2020/12/27 08:11:23;;;;;;;0.82;0.50;;;;;;;-145.48;100.00;59605.97;5092999;28;20036;-81
2020/12/27 08:13:58;;;;;;;0.30;0.30;;;;;;;-145.48;100.00;59605.97;5089800;28;20439;-82
2020/12/27 08:16:24;;;;;;;0.98;0.50;;;;;;;-145.48;100.00;59605.97;5093106;28;20028;-81
2020/12/27 08:19:05;;;;;;;1.40;0.80;;;;;;;-145.48;100.00;59605.97;5090298;28;20023;-82
2020/12/27 08:21:32;;;;;;;1.13;0.60;;;;;;;-145.48;100.00;59605.97;5092837;28;20121;-81
2020/12/27 08:24:08;;;;;;;0.80;0.57;;;;;;;-145.48;100.00;59605.97;5084969;28;20056;-83
2020/12/27 08:26:35;;;;;;;1.27;0.80;;;;;;;-145.48;100.00;59605.97;5068766;28;20658;-83
2020/12/27 08:29:13;;;;;;;1.75;0.70;;;;;;;-145.48;100.00;59605.97;5089890;28;20032;-84
2020/12/27 08:31:43;;;;;;;0.30;0.30;;;;;;;-145.48;100.00;59605.97;5076452;28;20537;-84
2020/12/27 08:34:14;;;;;;;1.20;0.50;;;;;;;-145.48;100.00;59605.97;5092786;28;20032;-84
2020/12/27 08:36:44;;;;;;;0.60;0.40;;;;;;;-145.48;100.00;59605.97;5088609;28;20020;-85
2020/12/27 08:39:24;;;;;;;0.40;0.40;;;;;;;-145.48;100.00;59605.97;5090593;28;20020;-84
2020/12/27 08:42:23;;;;;;;0.35;0.35;;;;;;;-145.48;100.00;59605.97;5092233;28;20032;-83
2020/12/27 08:45:07;;;;;;;0.50;0.40;;;;;;;-145.48;100.00;59605.97;5095054;28;20042;-84
2020/12/27 08:47:46;;;;;;;0.75;0.50;;;;;;;-145.48;100.00;59605.97;5089679;28;20035;-84
2020/12/27 08:50:25;;;;;;;3.05;0.90;;;;;;;-145.48;100.00;59605.97;5096382;28;20657;-83
2020/12/27 08:52:54;;;;;;;0.50;0.30;;;;;;;-145.48;100.00;59605.97;5095816;28;20603;-83
2020/12/27 08:55:27;;;;;;;1.27;0.60;;;;;;;-145.48;100.00;59605.97;5107954;28;20076;-84
2020/12/27 08:57:53;;;;;;;0.50;0.50;;;;;;;-145.48;100.00;59605.97;5094222;28;20020;-79
2020/12/27 09:00:20;;;;;;;0.70;0.57;;;;;;;-145.48;100.00;59605.97;5085267;28;20169;-83
2020/12/27 09:02:55;;;;;;;0.80;0.45;;;;;;;-145.48;100.00;59605.97;5087376;28;20499;-80
2020/12/27 09:05:20;;;;;;;0.40;0.30;;;;;;;-145.48;100.00;59605.97;5087644;28;20027;-79
2020/12/27 09:07:46;;;;;;;0.57;0.40;;;;;;;-145.48;100.00;59605.97;5086914;28;20284;-79
2020/12/27 09:10:23;;;;;;;0.43;0.40;;;;;;;-145.48;100.00;59605.97;5088102;28;20045;-79
2020/12/27 09:13:03;;;;;;;0.93;0.38;;;;;;;-145.48;100.00;59605.97;5082338;28;20067;-80
2020/12/27 09:17:16;;;;;;;2.45;0.75;;;;;;;10.26;100.00;98172.78;5082219;27;20943;-32
2020/12/27 09:19:45;;;;;;;10.13;1.10;;;;;;;11.20;100.00;98149.59;5063880;28;20025;-32
2020/12/27 09:22:10;;;;;;;1.98;0.40;;;;;;;11.89;96.45;98146.81;5073617;28;20490;-32
2020/12/27 09:24:36;;;;;;;4.10;0.25;;;;;;;12.39;92.51;98151.00;5065793;28;20035;-32
2020/12/27 09:27:08;;;;;;;4.63;0.50;;;;;;;12.96;90.80;98134.03;5073052;28;20025;-32
2020/12/27 09:29:33;;;;;;;2.97;0.60;;;;;;;13.38;88.66;98130.00;5069531;28;20044;-32
2020/12/27 09:32:07;;;;;;;5.07;0.70;;;;;;;13.69;85.42;98122.47;5070113;28;20056;-33
2020/12/27 09:34:33;;;;;;;3.08;0.30;;;;;;;13.91;84.31;98124.63;5063734;28;20143;-32
2020/12/27 09:37:14;;;;;;;0.77;0.30;;;;;;;14.18;82.18;98118.31;5067785;28;20521;-33
2020/12/27 09:39:39;;;;;;;2.55;0.35;;;;;;;14.40;79.79;98113.47;5066082;28;20093;-32
2020/12/27 09:42:05;;;;;;;5.20;0.95;;;;;;;14.48;78.93;98110.88;5065408;28;20111;-32
2020/12/27 09:44:30;;;;;;;1.73;0.40;;;;;;;14.62;78.20;98107.63;5065260;28;20113;-32
2020/12/27 09:46:57;;;;;;;2.35;0.35;;;;;;;14.72;77.66;98079.09;5064955;28;20106;-38
2020/12/27 09:49:25;;;;;;;1.35;0.40;;;;;;;14.92;75.43;98076.97;5074042;28;20509;-36
2020/12/27 09:52:05;;;;;;;1.73;0.28;;;;;;;15.09;75.36;98079.66;5070027;28;20044;-38
2020/12/27 09:54:32;;;;;;;6.13;0.50;;;;;;;15.18;75.88;98070.72;5071542;28;20029;-38
2020/12/27 09:57:08;;;;;;;6.85;0.60;;;;;;;15.27;74.33;98067.06;5062550;28;20027;-37
2020/12/27 09:59:35;;;;;;;1.98;0.10;;;;;;;15.38;72.73;98047.28;5062487;28;20025;-37
2020/12/27 10:02:00;;;;;;;2.53;0.50;;;;;;;15.48;71.69;98034.63;5069072;28;20039;-38
2020/12/27 10:04:25;;;;;;;0.80;0.43;;;;;;;15.55;72.86;98028.47;5056352;28;20025;-37
2020/12/27 10:06:51;;;;;;;2.75;0.30;;;;;;;15.61;71.76;98024.28;5062782;28;20024;-38
2020/12/27 10:09:16;;;;;;;0.65;0.28;;;;;;;15.64;70.95;98002.69;5067668;28;20040;-37
2020/12/27 10:11:42;;;;;;;1.73;0.30;;;;;;;15.69;70.24;97987.03;5065106;28;20024;-36
2020/12/27 10:14:07;;;;;;;0.88;0.60;;;;;;;15.73;70.91;98012.34;5068432;28;20139;-38
2020/12/27 10:16:32;;;;;;;1.00;0.30;;;;;;;15.80;70.70;97964.53;5070841;28;20413;-38
2020/12/27 10:18:58;;;;;;;4.85;0.55;;;;;;;15.83;68.98;97947.41;5054876;28;20495;-38
2020/12/27 10:21:23;;;;;;;1.08;0.30;;;;;;;15.88;69.12;97950.38;5055874;28;20020;-38
2020/12/27 10:23:48;;;;;;;0.43;0.30;;;;;;;15.95;68.94;97954.00;5059128;28;20494;-40
2020/12/27 10:26:14;;;;;;;1.90;0.30;;;;;;;15.99;68.77;97939.34;5058212;28;20029;-40
2020/12/27 10:28:39;;;;;;;1.17;0.52;;;;;;;16.03;67.37;97946.84;5051679;28;20060;-39
2020/12/27 10:31:08;;;;;;;2.60;0.40;;;;;;;16.11;67.85;97929.13;5045762;28;20048;-39
2020/12/27 10:33:33;;;;;;;1.95;0.30;;;;;;;16.12;68.32;97934.31;5049874;28;20064;-39
2020/12/27 10:35:59;;;;;;;0.43;0.30;;;;;;;16.20;67.27;97902.28;5047992;28;20513;-39
2020/12/27 10:38:24;;;;;;;0.65;0.30;;;;;;;16.28;66.01;97922.75;5044616;28;20031;-40
2020/12/27 10:40:50;;;;;;;2.45;0.28;;;;;;;16.33;66.10;97912.38;5045281;28;20116;-40
2020/12/27 10:43:15;;;;;;;5.15;0.50;;;;;;;16.36;66.76;97892.53;5040053;28;20129;-39
2020/12/27 10:45:40;;;;;;;0.63;0.22;;;;;;;16.38;65.95;97888.69;5047813;28;20725;-38
2020/12/27 10:48:06;;;;;;;0.60;0.32;;;;;;;16.43;67.08;97896.16;5047360;28;20454;-40
2020/12/27 10:50:31;;;;;;;2.15;0.98;;;;;;;16.50;65.22;97886.44;5048744;28;20064;-40
2020/12/27 10:52:57;;;;;;;2.40;0.40;;;;;;;16.54;65.85;97898.41;5049789;28;20029;-39
2020/12/27 10:55:22;;;;;;;4.72;0.45;;;;;;;16.56;65.56;97862.56;5049876;28;20033;-39
2020/12/27 10:57:47;;;;;;;3.53;0.43;;;;;;;16.57;65.91;97879.41;5049375;28;20039;-39
2020/12/27 11:00:13;;;;;;;4.18;0.50;;;;;;;16.55;65.70;97881.41;5044697;28;20083;-40
2020/12/27 11:02:38;;;;;;;0.38;0.20;;;;;;;16.57;65.56;97880.25;5050071;28;20024;-37
2020/12/27 11:05:04;;;;;;;3.05;0.30;;;;;;;16.56;65.13;97848.41;5048808;28;20023;-39
2020/12/27 11:07:29;;;;;;;1.98;0.47;;;;;;;16.55;65.54;97870.75;5049719;28;20048;-36
2020/12/27 11:09:54;;;;;;;1.23;0.38;;;;;;;16.55;65.50;97855.56;5048171;28;20407;-38
2020/12/27 11:12:20;;;;;;;0.90;0.40;;;;;;;16.54;64.93;97861.91;5047799;28;20556;-37
2020/12/27 11:14:45;;;;;;;1.65;0.40;;;;;;;16.50;65.14;97862.44;5045289;28;20028;-38
2020/12/27 11:17:10;;;;;;;0.30;0.30;;;;;;;16.51;65.23;97856.94;5049482;28;20522;-38
2020/12/27 11:19:36;;;;;;;1.70;0.30;;;;;;;16.50;65.42;97865.94;5053354;28;20035;-38
2020/12/27 11:22:01;;;;;;;0.60;0.47;;;;;;;16.51;65.48;97856.94;5056241;28;20043;-38
2020/12/27 11:24:26;;;;;;;0.40;0.30;;;;;;;16.51;65.72;97858.78;5057087;28;20036;-38